createdAt,value
2018-09-10T00:02:03.946Z,58.08
2018-09-10T00:04:33.378Z,57.60
2018-09-10T00:07:02.794Z,57.44
2018-09-10T00:09:32.282Z,57.10
2018-09-10T00:12:01.848Z,57.10
2018-09-10T00:14:31.265Z,56.93
2018-09-10T00:17:00.685Z,57.79
2018-09-10T00:19:30.056Z,57.45
2018-09-10T00:21:59.436Z,58.04
2018-09-10T00:24:32.148Z,57.62
2018-09-10T00:27:01.902Z,58.00
2018-09-10T00:29:31.385Z,57.86
2018-09-10T00:32:00.758Z,58.01
2018-09-10T00:34:30.560Z,57.82
2018-09-10T00:36:59.947Z,58.14
2018-09-10T00:39:29.541Z,58.67
2018-09-10T00:41:58.954Z,59.17
2018-09-10T00:44:28.383Z,59.80
2018-09-10T00:46:58.810Z,59.95
2018-09-10T00:49:28.248Z,60.01
2018-09-10T00:51:57.712Z,60.52
2018-09-10T00:54:27.149Z,60.81
2018-09-10T00:56:56.727Z,61.14
2018-09-10T00:59:26.166Z,61.38
2018-09-10T01:01:55.829Z,61.62
2018-09-10T01:04:25.248Z,61.97
2018-09-10T01:06:54.685Z,62.83
2018-09-10T01:09:24.164Z,63.17
2018-09-10T01:11:53.649Z,63.72
2018-09-10T01:14:23.104Z,63.52
2018-09-10T01:16:52.559Z,63.72
2018-09-10T01:19:22.194Z,63.34
2018-09-10T01:21:51.658Z,63.55
2018-09-10T01:24:21.085Z,63.71
2018-09-10T01:26:50.662Z,63.35
2018-09-10T01:29:20.083Z,63.53
2018-09-10T01:31:49.721Z,63.19
2018-09-10T01:34:24.093Z,63.03
2018-09-10T01:36:53.730Z,64.02
2018-09-10T01:39:23.190Z,63.97
2018-09-10T01:41:52.650Z,63.73
2018-09-10T01:44:22.028Z,63.35
2018-09-10T01:46:51.493Z,63.32
2018-09-10T01:49:21.067Z,63.09
2018-09-10T01:51:50.682Z,63.24
2018-09-10T01:54:20.125Z,63.27
2018-09-10T01:56:50.016Z,63.34
2018-09-10T01:59:19.761Z,63.59
2018-09-10T02:01:49.851Z,63.83
2018-09-10T02:04:19.925Z,64.02
2018-09-10T02:06:49.414Z,63.54
2018-09-10T02:09:19.131Z,63.66
2018-09-10T02:11:48.910Z,63.59
2018-09-10T02:14:19.131Z,63.84
2018-09-10T02:16:48.597Z,64.21
2018-09-10T02:19:18.497Z,64.35
2018-09-10T02:21:48.334Z,63.89
2018-09-10T02:24:18.152Z,63.69
2018-09-10T02:26:47.531Z,63.94
2018-09-10T02:29:17.465Z,64.64
2018-09-10T02:31:47.111Z,64.06
2018-09-10T02:34:16.874Z,64.45
2018-09-10T02:36:46.747Z,64.13
2018-09-10T02:39:16.631Z,65.02
2018-09-10T02:41:46.247Z,64.95
2018-09-10T02:44:15.921Z,64.36
2018-09-10T02:46:45.783Z,64.48
2018-09-10T02:49:15.650Z,64.41
2018-09-10T02:51:45.288Z,64.06
2018-09-10T02:54:15.143Z,63.83
2018-09-10T02:56:44.863Z,63.84
2018-09-10T02:59:14.438Z,64.08
2018-09-10T03:01:44.119Z,63.74
2018-09-10T03:04:13.545Z,63.89
2018-09-10T03:06:43.201Z,63.64
2018-09-10T03:09:13.243Z,63.60
2018-09-10T03:11:42.922Z,63.47
2018-09-10T03:14:12.580Z,63.34
2018-09-10T03:16:42.265Z,63.10
2018-09-10T03:19:11.796Z,63.71
2018-09-10T03:21:41.511Z,63.71
2018-09-10T03:24:11.091Z,64.05
2018-09-10T03:26:40.760Z,63.72
2018-09-10T03:29:10.233Z,63.88
2018-09-10T03:31:39.785Z,63.98
2018-09-10T03:34:09.454Z,63.69
2018-09-10T03:36:39.215Z,63.71
2018-09-10T03:39:09.974Z,63.43
2018-09-10T03:41:39.739Z,63.43
2018-09-10T03:44:09.526Z,63.67
2018-09-10T03:46:39.091Z,63.68
2018-09-10T03:49:08.748Z,64.07
2018-09-10T03:51:38.359Z,63.93
2018-09-10T03:54:07.889Z,64.12
2018-09-10T03:56:37.458Z,64.30
2018-09-10T03:59:07.236Z,64.40
2018-09-10T04:01:36.757Z,64.38
2018-09-10T04:04:06.426Z,64.74
2018-09-10T04:06:36.063Z,64.54
2018-09-10T04:09:06.871Z,64.36
2018-09-10T04:11:36.324Z,64.97
2018-09-10T04:14:06.070Z,64.35
2018-09-10T04:16:35.782Z,64.30
2018-09-10T04:19:05.736Z,64.40
2018-09-10T04:21:35.534Z,64.82
2018-09-10T04:24:05.093Z,64.36
2018-09-10T04:26:34.808Z,64.09
2018-09-10T04:29:04.597Z,64.51
2018-09-10T04:31:34.525Z,64.25
2018-09-10T04:34:04.009Z,64.14
2018-09-10T04:36:33.595Z,64.06
2018-09-10T04:39:03.664Z,64.49
2018-09-10T04:41:43.944Z,64.34
2018-09-10T04:44:13.580Z,65.59
2018-09-10T04:46:43.334Z,64.48
2018-09-10T04:49:13.001Z,63.92
2018-09-10T04:51:42.768Z,62.13
2018-09-10T04:54:12.271Z,59.75
2018-09-10T04:56:41.823Z,56.77
2018-09-10T04:59:11.470Z,53.88
2018-09-10T05:01:41.020Z,51.99
2018-09-10T05:04:10.797Z,51.58
2018-09-10T05:06:40.291Z,50.34
2018-09-10T05:09:10.279Z,49.18
2018-09-10T05:11:39.896Z,49.43
2018-09-10T05:14:09.752Z,48.16
2018-09-10T05:16:39.440Z,47.21
2018-09-10T05:19:09.237Z,45.05
2018-09-10T05:21:38.981Z,44.94
2018-09-10T05:24:08.439Z,44.39
2018-09-10T05:26:38.339Z,43.50
2018-09-10T05:29:07.967Z,41.74
2018-09-10T05:31:37.689Z,40.38
2018-09-10T05:34:07.324Z,39.41
2018-09-10T05:36:37.038Z,40.08
2018-09-10T05:39:08.161Z,38.53
2018-09-10T05:41:38.000Z,38.70
2018-09-10T05:44:07.701Z,38.14
2018-09-10T05:46:37.452Z,37.55
2018-09-10T05:49:07.199Z,36.06
2018-09-10T05:51:36.704Z,35.71
2018-09-10T05:54:06.303Z,35.02
2018-09-10T05:56:35.900Z,35.53
2018-09-10T05:59:05.610Z,35.24
2018-09-10T06:01:35.347Z,32.25
2018-09-10T06:04:05.241Z,32.29
2018-09-10T06:06:35.142Z,31.91
2018-09-10T06:09:05.254Z,31.44
2018-09-10T06:11:34.990Z,31.81
2018-09-10T06:14:04.706Z,32.35
2018-09-10T06:16:34.607Z,31.46
2018-09-10T06:19:05.551Z,31.25
2018-09-10T06:21:35.143Z,34.24
2018-09-10T06:24:04.948Z,33.97
2018-09-10T06:26:34.911Z,32.55
2018-09-10T06:29:04.413Z,32.59
2018-09-10T06:31:34.113Z,32.54
2018-09-10T06:34:04.216Z,33.17
2018-09-10T06:36:33.993Z,31.28
2018-09-10T06:39:03.880Z,31.78
2018-09-10T06:41:33.694Z,30.48
2018-09-10T06:44:03.377Z,29.84
2018-09-10T06:46:32.945Z,29.62
2018-09-10T06:49:02.713Z,30.50
2018-09-10T06:51:32.699Z,29.71
2018-09-10T06:54:02.188Z,30.55
2018-09-10T06:56:31.679Z,29.62
2018-09-10T06:59:01.306Z,30.08
2018-09-10T07:01:30.965Z,29.17
2018-09-10T07:04:00.819Z,27.65
2018-09-10T07:06:30.879Z,27.44
2018-09-10T07:09:00.422Z,28.90
2018-09-10T07:11:30.241Z,29.03
2018-09-10T07:14:00.158Z,28.57
2018-09-10T07:16:29.738Z,28.31
2018-09-10T07:18:59.326Z,26.60
2018-09-10T07:21:29.118Z,28.03
2018-09-10T07:23:59.231Z,27.95
2018-09-10T07:26:28.679Z,27.99
2018-09-10T07:28:58.522Z,28.52
2018-09-10T07:31:28.110Z,26.06
2018-09-10T07:33:57.745Z,27.78
2018-09-10T07:36:27.409Z,26.41
2018-09-10T07:38:57.254Z,26.12
2018-09-10T07:41:27.252Z,27.26
2018-09-10T07:43:57.009Z,27.13
2018-09-10T07:46:26.556Z,26.75
2018-09-10T07:48:56.222Z,27.00
2018-09-10T07:51:25.985Z,27.03
2018-09-10T07:53:55.955Z,26.74
2018-09-10T07:56:25.975Z,28.56
2018-09-10T07:58:55.962Z,26.36
2018-09-10T08:01:25.571Z,25.54
2018-09-10T08:03:55.367Z,25.19
2018-09-10T08:06:25.386Z,25.24
2018-09-10T08:08:55.391Z,24.69
2018-09-10T08:11:25.276Z,23.79
2018-09-10T08:13:54.922Z,27.64
2018-09-10T08:16:24.849Z,25.78
2018-09-10T08:18:54.744Z,27.16
2018-09-10T08:21:24.460Z,25.21
2018-09-10T08:23:54.546Z,23.39
2018-09-10T08:26:24.162Z,22.96
2018-09-10T08:28:53.864Z,21.79
2018-09-10T08:31:23.717Z,20.93
2018-09-10T08:33:53.565Z,19.63
2018-09-10T08:36:23.214Z,20.28
2018-09-10T08:38:53.165Z,21.26
2018-09-10T08:41:23.037Z,20.73
2018-09-10T08:43:52.908Z,20.50
2018-09-10T08:46:22.628Z,20.83
2018-09-10T08:48:52.363Z,20.22
2018-09-10T08:51:22.127Z,20.48
2018-09-10T08:53:51.844Z,19.23
2018-09-10T08:56:21.940Z,18.99
2018-09-10T08:58:51.509Z,19.38
2018-09-10T09:01:21.046Z,18.42
2018-09-10T09:03:50.750Z,18.18
2018-09-10T09:06:20.327Z,19.55
2018-09-10T09:08:50.186Z,20.70
2018-09-10T09:11:19.999Z,20.24
2018-09-10T09:13:50.475Z,19.97
2018-09-10T09:16:20.029Z,18.90
2018-09-10T09:18:49.575Z,18.68
2018-09-10T09:21:19.099Z,18.90
2018-09-10T09:23:49.001Z,18.12
2018-09-10T09:26:18.774Z,18.73
2018-09-10T09:28:48.463Z,19.25
2018-09-10T09:31:18.127Z,19.20
2018-09-10T09:33:47.961Z,18.93
2018-09-10T09:36:23.790Z,17.61
2018-09-10T09:38:58.424Z,17.40
2018-09-10T09:41:33.119Z,16.47
2018-09-10T09:44:07.996Z,16.92
2018-09-10T09:46:38.015Z,17.06
2018-09-10T09:49:07.620Z,17.74
2018-09-10T09:51:37.110Z,19.03
2018-09-10T09:54:07.056Z,18.41
2018-09-10T09:56:37.038Z,17.05
2018-09-10T09:59:07.393Z,18.39
2018-09-10T10:01:41.124Z,17.61
2018-09-10T10:04:11.753Z,18.80
2018-09-10T10:06:41.245Z,19.50
2018-09-10T10:09:12.493Z,18.50
2018-09-10T10:11:42.191Z,18.45
2018-09-10T10:14:12.117Z,19.96
2018-09-10T10:16:41.937Z,19.14
2018-09-10T10:19:11.708Z,19.40
2018-09-10T10:21:41.570Z,20.40
2018-09-10T10:24:11.233Z,20.73
2018-09-10T10:26:40.823Z,19.53
2018-09-10T10:29:10.298Z,18.84
2018-09-10T10:31:39.973Z,19.94
2018-09-10T10:34:09.537Z,19.41
2018-09-10T10:36:39.255Z,18.59
2018-09-10T10:39:09.526Z,18.82
2018-09-10T10:41:40.078Z,18.03
2018-09-10T10:44:10.301Z,17.35
2018-09-10T10:46:39.824Z,18.21
2018-09-10T10:49:09.452Z,18.65
2018-09-10T10:51:39.358Z,17.17
2018-09-10T10:54:09.104Z,18.61
2018-09-10T10:56:38.670Z,17.50
2018-09-10T10:59:08.371Z,18.08
2018-09-10T11:01:38.183Z,17.50
2018-09-10T11:04:07.953Z,18.28
2018-09-10T11:06:37.716Z,19.49
2018-09-10T11:09:08.939Z,20.39
2018-09-10T11:11:38.803Z,19.30
2018-09-10T11:14:08.775Z,18.52
2018-09-10T11:16:38.761Z,18.85
2018-09-10T11:19:08.563Z,19.17
2018-09-10T11:21:38.403Z,19.33
2018-09-10T11:24:07.848Z,19.57
2018-09-10T11:26:37.485Z,18.75
2018-09-10T11:29:07.169Z,18.54
2018-09-10T11:31:36.773Z,19.73
2018-09-10T11:34:06.199Z,18.66
2018-09-10T11:36:35.885Z,18.99
2018-09-10T11:39:06.642Z,19.24
2018-09-10T11:41:36.489Z,17.95
2018-09-10T11:44:06.268Z,17.85
2018-09-10T11:46:36.414Z,17.36
2018-09-10T11:49:06.388Z,18.25
2018-09-10T11:51:36.288Z,18.22
2018-09-10T11:54:05.885Z,18.80
2018-09-10T11:56:36.284Z,19.25
2018-09-10T11:59:07.024Z,21.05
2018-09-10T12:01:36.892Z,22.13
2018-09-10T12:04:06.728Z,22.91
2018-09-10T12:06:36.560Z,23.13
2018-09-10T12:09:07.232Z,23.75
2018-09-10T12:11:37.357Z,23.94
2018-09-10T12:14:07.019Z,23.62
2018-09-10T12:16:36.566Z,23.26
2018-09-10T12:19:06.448Z,22.40
2018-09-10T12:21:36.276Z,22.64
2018-09-10T12:24:05.967Z,23.16
2018-09-10T12:26:35.728Z,23.58
2018-09-10T12:29:05.259Z,23.65
2018-09-10T12:31:34.828Z,23.90
2018-09-10T12:34:04.541Z,24.15
2018-09-10T12:36:34.037Z,24.20
2018-09-10T12:39:03.948Z,24.31
2018-09-10T12:41:33.919Z,24.05
2018-09-10T12:44:03.434Z,23.53
2018-09-10T12:46:33.236Z,23.71
2018-09-10T12:49:02.679Z,23.80
2018-09-10T12:51:32.294Z,24.15
2018-09-10T12:54:02.053Z,23.94
2018-09-10T12:56:32.006Z,24.00
2018-09-10T12:59:01.482Z,24.55
2018-09-10T13:01:31.115Z,23.77
2018-09-10T13:04:00.650Z,23.53
2018-09-10T13:06:30.167Z,24.26
2018-09-10T13:08:59.543Z,23.89
2018-09-10T13:11:29.125Z,24.27
2018-09-10T13:13:58.587Z,23.95
2018-09-10T13:16:29.799Z,24.36
2018-09-10T13:18:59.431Z,23.97
2018-09-10T13:21:28.921Z,24.13
2018-09-10T13:23:58.320Z,24.04
2018-09-10T13:26:27.790Z,24.72
2018-09-10T13:28:57.323Z,24.62
2018-09-10T13:31:27.031Z,24.24
2018-09-10T13:33:56.408Z,24.20
2018-09-10T13:36:26.926Z,24.17
2018-09-10T13:38:56.380Z,24.45
2018-09-10T13:41:25.858Z,24.91
2018-09-10T13:43:55.266Z,25.32
2018-09-10T13:46:24.759Z,25.84
2018-09-10T13:48:54.292Z,26.08
2018-09-10T13:51:23.601Z,25.76
2018-09-10T13:53:53.013Z,25.73
2018-09-10T13:56:22.529Z,26.23
2018-09-10T13:58:52.001Z,25.92
2018-09-10T14:01:21.436Z,25.96
2018-09-10T14:03:50.886Z,25.97
2018-09-10T14:06:20.466Z,26.75
2018-09-10T14:08:49.995Z,26.58
2018-09-10T14:11:19.435Z,26.24
2018-09-10T14:13:48.894Z,26.33
2018-09-10T14:16:18.524Z,26.32
2018-09-10T14:18:48.518Z,25.44
2018-09-10T14:21:18.187Z,26.04
2018-09-10T14:23:47.794Z,25.51
2018-09-10T14:26:17.358Z,25.74
2018-09-10T14:28:46.983Z,25.70
2018-09-10T14:31:16.751Z,26.04
2018-09-10T14:33:46.313Z,24.42
2018-09-10T14:36:15.876Z,24.41
2018-09-10T14:38:45.461Z,25.25
2018-09-10T14:41:15.199Z,24.96
2018-09-10T14:43:44.695Z,25.90
2018-09-10T14:46:14.414Z,25.56
2018-09-10T14:48:43.846Z,25.07
2018-09-10T14:51:13.341Z,25.30
2018-09-10T14:53:42.915Z,25.89
2018-09-10T14:56:12.454Z,26.23
2018-09-10T14:58:41.863Z,26.21
2018-09-10T15:01:11.355Z,26.91
2018-09-10T15:03:40.850Z,26.34
2018-09-10T15:06:10.219Z,26.63
2018-09-10T15:08:39.869Z,27.08
2018-09-10T15:11:09.406Z,27.55
2018-09-10T15:13:39.154Z,28.69
2018-09-10T15:16:08.772Z,29.04
2018-09-10T15:18:38.324Z,29.82
2018-09-10T15:21:08.018Z,29.27
2018-09-10T15:23:37.387Z,29.60
2018-09-10T15:26:07.152Z,30.36
2018-09-10T15:28:36.791Z,30.31
2018-09-10T15:31:06.612Z,31.03
2018-09-10T15:33:36.103Z,31.22
2018-09-10T15:36:05.766Z,31.06
2018-09-10T15:38:35.824Z,31.18
2018-09-10T15:41:05.356Z,31.37
2018-09-10T15:43:35.142Z,31.32
2018-09-10T15:46:05.374Z,30.63
2018-09-10T15:48:35.082Z,30.66
2018-09-10T15:51:04.551Z,31.13
2018-09-10T15:53:33.974Z,30.56
2018-09-10T15:56:03.584Z,30.70
2018-09-10T15:58:33.356Z,31.08
2018-09-10T16:01:02.930Z,30.95
2018-09-10T16:03:32.572Z,30.85
2018-09-10T16:06:02.268Z,31.09
2018-09-10T16:08:32.177Z,31.56
2018-09-10T16:11:02.621Z,31.26
2018-09-10T16:13:32.104Z,31.49
2018-09-10T16:16:01.584Z,31.23
2018-09-10T16:18:31.230Z,31.21
2018-09-10T16:21:01.399Z,31.52
2018-09-10T16:23:31.195Z,31.69
2018-09-10T16:26:00.692Z,31.78
2018-09-10T16:28:30.290Z,31.56
2018-09-10T16:31:00.158Z,31.87
2018-09-10T16:33:29.936Z,31.79
2018-09-10T16:35:59.594Z,31.66
2018-09-10T16:38:29.050Z,31.99
2018-09-10T16:40:58.609Z,31.74
2018-09-10T16:43:28.162Z,33.35
2018-09-10T16:45:57.658Z,32.75
2018-09-10T16:48:27.691Z,32.57
2018-09-10T16:50:57.456Z,33.57
2018-09-10T16:53:27.072Z,33.33
2018-09-10T16:55:56.515Z,34.47
2018-09-10T16:58:26.258Z,34.27
2018-09-10T17:00:55.682Z,35.12
2018-09-10T17:03:25.291Z,35.39
2018-09-10T17:05:54.851Z,35.89
2018-09-10T17:08:24.370Z,35.76
2018-09-10T17:10:53.782Z,36.06
2018-09-10T17:13:23.287Z,36.78
2018-09-10T17:15:52.895Z,37.26
2018-09-10T17:18:22.909Z,37.56
2018-09-10T17:20:52.515Z,38.96
2018-09-10T17:23:21.981Z,39.14
2018-09-10T17:25:53.900Z,38.02
2018-09-10T17:28:23.894Z,37.61
2018-09-10T17:30:53.968Z,38.05
2018-09-10T17:33:23.707Z,38.15
2018-09-10T17:35:53.283Z,38.16
2018-09-10T17:38:22.839Z,37.65
2018-09-10T17:40:52.394Z,37.96
2018-09-10T17:43:21.846Z,38.46
2018-09-10T17:45:51.341Z,38.52
2018-09-10T17:48:20.720Z,39.50
2018-09-10T17:50:50.229Z,40.91
2018-09-10T17:53:19.637Z,42.08
2018-09-10T17:55:49.358Z,41.59
2018-09-10T17:58:18.742Z,40.42
2018-09-10T18:00:48.809Z,40.49
2018-09-10T18:03:18.603Z,40.48
2018-09-10T18:05:48.104Z,40.80
2018-09-10T18:08:17.616Z,40.93
2018-09-10T18:10:47.510Z,41.32
2018-09-10T18:13:17.391Z,41.93
2018-09-10T18:15:46.993Z,41.96
2018-09-10T18:18:16.502Z,41.52
2018-09-10T18:20:46.025Z,42.49
2018-09-10T18:23:15.514Z,43.04
2018-09-10T18:25:45.163Z,43.87
2018-09-10T18:28:14.952Z,43.72
2018-09-10T18:30:44.799Z,43.46
2018-09-10T18:33:14.328Z,43.75
2018-09-10T18:35:43.900Z,44.31
2018-09-10T18:38:13.446Z,44.19
2018-09-10T18:40:43.310Z,45.17
2018-09-10T18:43:13.398Z,44.33
2018-09-10T18:45:43.402Z,44.51
2018-09-10T18:48:13.416Z,44.70
2018-09-10T18:50:43.026Z,45.56
2018-09-10T18:53:12.427Z,44.51
2018-09-10T18:55:41.948Z,44.94
2018-09-10T18:58:11.526Z,44.34
2018-09-10T19:00:41.617Z,44.76
2018-09-10T19:03:11.097Z,45.00
2018-09-10T19:05:40.789Z,45.11
2018-09-10T19:08:10.508Z,44.55
2018-09-10T19:10:40.127Z,44.83
2018-09-10T19:13:09.700Z,45.17
2018-09-10T19:15:39.448Z,45.06
2018-09-10T19:18:09.117Z,44.85
2018-09-10T19:20:38.569Z,45.13
2018-09-10T19:23:08.201Z,44.97
2018-09-10T19:25:37.854Z,44.69
2018-09-10T19:28:07.434Z,44.46
2018-09-10T19:30:36.980Z,44.46
2018-09-10T19:33:06.621Z,44.84
2018-09-10T19:35:36.134Z,44.70
2018-09-10T19:38:05.746Z,43.92
2018-09-10T19:40:35.309Z,43.65
2018-09-10T19:43:04.986Z,43.52
2018-09-10T19:45:34.560Z,44.14
2018-09-10T19:48:04.077Z,43.65
2018-09-10T19:50:33.750Z,44.41
2018-09-10T19:53:03.469Z,44.61
2018-09-10T19:55:33.373Z,44.88
2018-09-10T19:58:02.955Z,44.92
2018-09-10T20:00:32.529Z,45.24
2018-09-10T20:03:02.204Z,44.80
2018-09-10T20:05:32.293Z,44.90
2018-09-10T20:08:01.826Z,45.04
2018-09-10T20:10:31.769Z,45.53
2018-09-10T20:13:01.670Z,45.58
2018-09-10T20:15:31.346Z,45.68
2018-09-10T20:18:00.807Z,45.77
2018-09-10T20:20:30.373Z,45.90
2018-09-10T20:22:59.971Z,45.31
2018-09-10T20:25:29.566Z,45.70
2018-09-10T20:27:59.517Z,45.32
2018-09-10T20:30:29.182Z,45.72
2018-09-10T20:32:58.803Z,46.03
2018-09-10T20:35:28.178Z,45.54
2018-09-10T20:37:57.788Z,45.80
2018-09-10T20:40:27.252Z,45.70
2018-09-10T20:42:56.867Z,45.75
2018-09-10T20:45:26.594Z,45.41
2018-09-10T20:47:56.404Z,46.00
2018-09-10T20:50:25.896Z,46.18
2018-09-10T20:52:55.490Z,46.78
2018-09-10T20:55:25.009Z,46.22
2018-09-10T20:57:54.706Z,46.66
2018-09-10T21:00:24.097Z,47.09
2018-09-10T21:02:53.562Z,46.55
2018-09-10T21:05:24.044Z,47.14
2018-09-10T21:07:53.527Z,46.72
2018-09-10T21:10:23.151Z,47.10
2018-09-10T21:12:52.873Z,46.79
2018-09-10T21:15:22.816Z,47.16
2018-09-10T21:17:52.524Z,47.19
2018-09-10T21:20:22.090Z,47.67
2018-09-10T21:22:51.523Z,47.60
2018-09-10T21:25:21.009Z,47.85
2018-09-10T21:27:50.889Z,48.59
2018-09-10T21:30:20.628Z,48.67
2018-09-10T21:32:50.100Z,48.66
2018-09-10T21:35:19.735Z,48.89
2018-09-10T21:37:49.121Z,48.77
2018-09-10T21:40:18.961Z,49.35
2018-09-10T21:42:48.330Z,49.29
2018-09-10T21:45:17.859Z,49.54
2018-09-10T21:47:47.434Z,48.80
2018-09-10T21:50:17.130Z,48.92
2018-09-10T21:52:47.077Z,48.81
2018-09-10T21:55:16.720Z,48.87
2018-09-10T21:57:46.277Z,48.55
2018-09-10T22:00:16.141Z,48.31
2018-09-10T22:02:45.848Z,48.34
2018-09-10T22:05:15.454Z,48.88
2018-09-10T22:07:45.062Z,48.69
2018-09-10T22:10:14.566Z,49.02
2018-09-10T22:12:44.217Z,48.74
2018-09-10T22:15:14.083Z,49.35
2018-09-10T22:17:43.861Z,49.01
2018-09-10T22:20:14.391Z,49.31
2018-09-10T22:22:43.937Z,49.55
2018-09-10T22:25:13.461Z,49.47
2018-09-10T22:27:43.109Z,49.76
2018-09-10T22:30:12.642Z,49.49
2018-09-10T22:32:42.813Z,49.73
2018-09-10T22:35:12.291Z,49.28
2018-09-10T22:37:41.898Z,49.61
2018-09-10T22:40:11.344Z,49.73
2018-09-10T22:42:40.881Z,50.52
2018-09-10T22:45:10.338Z,50.67
2018-09-10T22:47:39.906Z,51.51
2018-09-10T22:50:09.679Z,51.30
2018-09-10T22:52:39.125Z,51.40
2018-09-10T22:55:08.732Z,51.51
2018-09-10T22:57:38.247Z,51.81
2018-09-10T23:00:08.852Z,52.26
2018-09-10T23:02:38.640Z,52.59
2018-09-10T23:05:08.217Z,52.32
2018-09-10T23:07:37.642Z,52.20
2018-09-10T23:10:07.434Z,52.24
2018-09-10T23:12:36.818Z,51.86
2018-09-10T23:15:06.754Z,52.37
2018-09-10T23:17:36.500Z,52.88
2018-09-10T23:20:06.710Z,52.84
2018-09-10T23:22:36.537Z,52.76
2018-09-10T23:25:06.255Z,53.11
2018-09-10T23:27:35.809Z,53.42
2018-09-10T23:30:06.545Z,53.18
2018-09-10T23:32:36.074Z,53.47
2018-09-10T23:35:05.745Z,53.28
2018-09-10T23:37:35.858Z,53.52
2018-09-10T23:40:05.326Z,53.24
2018-09-10T23:42:34.869Z,53.69
2018-09-10T23:45:04.272Z,53.36
2018-09-10T23:47:33.930Z,53.25
2018-09-10T23:50:03.485Z,53.73
2018-09-10T23:52:32.912Z,54.09
2018-09-10T23:55:02.287Z,53.55
2018-09-10T23:57:31.803Z,53.79
